sensor_id;sensor_type;location;lat;lon;timestamp;pressure;altitude;pressure_sealevel;temperature;humidity
60874;BME280;46715;40.642;-7.920;2023-01-28T00:01:28;96719.34;;;5.18;64.15
60874;BME280;46715;40.642;-7.920;2023-01-28T00:03:28;96719.81;;;5.15;64.23
60874;BME280;46715;40.642;-7.920;2023-01-28T00:05:29;96728.47;;;5.08;64.33
60874;BME280;46715;40.642;-7.920;2023-01-28T00:07:29;96723.28;;;5.08;64.24
60874;BME280;46715;40.642;-7.920;2023-01-28T00:09:30;96718.22;;;5.13;64.11
60874;BME280;46715;40.642;-7.920;2023-01-28T00:11:31;96722.63;;;5.13;63.93
60874;BME280;46715;40.642;-7.920;2023-01-28T00:13:32;96712.63;;;5.17;64.08
60874;BME280;46715;40.642;-7.920;2023-01-28T00:15:33;96727.78;;;5.13;63.73
60874;BME280;46715;40.642;-7.920;2023-01-28T00:17:33;96724.19;;;5.14;64.02
60874;BME280;46715;40.642;-7.920;2023-01-28T00:19:34;96724.88;;;5.09;63.95
60874;BME280;46715;40.642;-7.920;2023-01-28T00:21:34;96719.19;;;5.01;64.31
60874;BME280;46715;40.642;-7.920;2023-01-28T00:23:36;96714.25;;;4.99;64.25
60874;BME280;46715;40.642;-7.920;2023-01-28T00:25:37;96714.72;;;5.08;63.92
60874;BME280;46715;40.642;-7.920;2023-01-28T00:27:37;96708.22;;;5.05;64.25
60874;BME280;46715;40.642;-7.920;2023-01-28T00:29:38;96714.16;;;5.06;63.87
60874;BME280;46715;40.642;-7.920;2023-01-28T00:31:39;96709.66;;;5.01;63.69
60874;BME280;46715;40.642;-7.920;2023-01-28T00:33:40;96715.09;;;5.11;63.53
60874;BME280;46715;40.642;-7.920;2023-01-28T00:35:44;96714.47;;;5.28;62.86
60874;BME280;46715;40.642;-7.920;2023-01-28T00:37:45;96724.47;;;5.36;62.29
60874;BME280;46715;40.642;-7.920;2023-01-28T00:39:46;96726.66;;;5.51;62.72
60874;BME280;46715;40.642;-7.920;2023-01-28T00:41:47;96723.25;;;5.51;62.64
60874;BME280;46715;40.642;-7.920;2023-01-28T00:43:50;96723.25;;;5.51;62.83
60874;BME280;46715;40.642;-7.920;2023-01-28T00:45:51;96727.28;;;5.35;62.68
60874;BME280;46715;40.642;-7.920;2023-01-28T00:47:51;96733.47;;;5.34;62.99
60874;BME280;46715;40.642;-7.920;2023-01-28T00:49:53;96724.28;;;5.07;63.86
60874;BME280;46715;40.642;-7.920;2023-01-28T00:51:53;96732.34;;;4.99;64.01
60874;BME280;46715;40.642;-7.920;2023-01-28T00:53:54;96735.00;;;4.92;64.20
60874;BME280;46715;40.642;-7.920;2023-01-28T00:55:55;96731.59;;;4.80;64.50
60874;BME280;46715;40.642;-7.920;2023-01-28T00:57:55;96728.97;;;4.68;65.01
60874;BME280;46715;40.642;-7.920;2023-01-28T00:59:56;96720.22;;;4.51;65.76
60874;BME280;46715;40.642;-7.920;2023-01-28T01:01:56;96735.72;;;4.51;65.64
60874;BME280;46715;40.642;-7.920;2023-01-28T01:04:11;96732.75;;;4.66;65.68
60874;BME280;46715;40.642;-7.920;2023-01-28T01:06:13;96721.56;;;4.53;66.22
60874;BME280;46715;40.642;-7.920;2023-01-28T01:08:14;96727.47;;;4.42;66.27
60874;BME280;46715;40.642;-7.920;2023-01-28T01:10:15;96727.38;;;4.30;66.61
60874;BME280;46715;40.642;-7.920;2023-01-28T01:12:16;96720.78;;;4.34;66.82
60874;BME280;46715;40.642;-7.920;2023-01-28T01:14:17;96716.72;;;4.26;66.94
60874;BME280;46715;40.642;-7.920;2023-01-28T01:16:18;96729.09;;;4.18;67.75
60874;BME280;46715;40.642;-7.920;2023-01-28T01:18:22;96718.69;;;4.24;68.01
60874;BME280;46715;40.642;-7.920;2023-01-28T01:20:25;96716.00;;;4.19;68.13
60874;BME280;46715;40.642;-7.920;2023-01-28T01:22:26;96719.13;;;4.21;67.90
60874;BME280;46715;40.642;-7.920;2023-01-28T01:24:28;96722.66;;;4.27;67.73
60874;BME280;46715;40.642;-7.920;2023-01-28T01:26:33;96715.50;;;4.29;67.20
60874;BME280;46715;40.642;-7.920;2023-01-28T01:28:33;96709.03;;;4.38;66.42
60874;BME280;46715;40.642;-7.920;2023-01-28T01:30:34;96710.25;;;4.54;66.11
60874;BME280;46715;40.642;-7.920;2023-01-28T01:32:35;96705.56;;;4.63;65.68
60874;BME280;46715;40.642;-7.920;2023-01-28T01:34:36;96698.53;;;4.70;65.29
60874;BME280;46715;40.642;-7.920;2023-01-28T01:36:38;96682.47;;;4.68;65.08
60874;BME280;46715;40.642;-7.920;2023-01-28T01:38:38;96686.13;;;4.60;65.26
60874;BME280;46715;40.642;-7.920;2023-01-28T01:40:42;96696.84;;;4.76;65.05
60874;BME280;46715;40.642;-7.920;2023-01-28T01:42:42;96693.34;;;4.70;64.66
60874;BME280;46715;40.642;-7.920;2023-01-28T01:46:56;96705.13;;;4.66;64.96
60874;BME280;46715;40.642;-7.920;2023-01-28T01:48:57;96708.22;;;4.75;64.68
60874;BME280;46715;40.642;-7.920;2023-01-28T01:51:09;96704.13;;;4.67;64.56
60874;BME280;46715;40.642;-7.920;2023-01-28T01:53:13;96715.75;;;4.76;64.46
60874;BME280;46715;40.642;-7.920;2023-01-28T01:55:16;96719.03;;;4.84;64.08
60874;BME280;46715;40.642;-7.920;2023-01-28T01:57:20;96709.97;;;4.93;63.74
60874;BME280;46715;40.642;-7.920;2023-01-28T01:59:23;96721.63;;;4.84;63.83
60874;BME280;46715;40.642;-7.920;2023-01-28T02:01:26;96726.13;;;4.88;64.17
60874;BME280;46715;40.642;-7.920;2023-01-28T02:03:32;96729.66;;;4.75;64.31
60874;BME280;46715;40.642;-7.920;2023-01-28T02:05:34;96725.22;;;4.64;64.68
60874;BME280;46715;40.642;-7.920;2023-01-28T02:07:35;96730.25;;;4.59;64.94
60874;BME280;46715;40.642;-7.920;2023-01-28T02:09:36;96726.59;;;4.48;65.29
60874;BME280;46715;40.642;-7.920;2023-01-28T02:11:37;96729.56;;;4.33;65.98
60874;BME280;46715;40.642;-7.920;2023-01-28T02:13:41;96734.78;;;4.26;66.36
60874;BME280;46715;40.642;-7.920;2023-01-28T02:15:43;96736.44;;;4.21;66.76
60874;BME280;46715;40.642;-7.920;2023-01-28T02:17:45;96729.25;;;4.23;66.78
60874;BME280;46715;40.642;-7.920;2023-01-28T02:19:47;96732.03;;;4.40;66.30
60874;BME280;46715;40.642;-7.920;2023-01-28T02:21:55;96730.97;;;4.48;66.07
60874;BME280;46715;40.642;-7.920;2023-01-28T02:28:40;96737.59;;;4.25;66.85
60874;BME280;46715;40.642;-7.920;2023-01-28T02:30:51;96718.97;;;4.16;67.19
60874;BME280;46715;40.642;-7.920;2023-01-28T02:33:00;96721.84;;;4.08;67.24
60874;BME280;46715;40.642;-7.920;2023-01-28T02:37:26;96729.84;;;4.43;66.54
60874;BME280;46715;40.642;-7.920;2023-01-28T02:39:41;96731.34;;;4.51;66.10
60874;BME280;46715;40.642;-7.920;2023-01-28T02:41:47;96739.00;;;4.39;66.37
60874;BME280;46715;40.642;-7.920;2023-01-28T02:43:49;96738.63;;;4.36;66.49
60874;BME280;46715;40.642;-7.920;2023-01-28T02:45:51;96740.59;;;4.40;66.55
60874;BME280;46715;40.642;-7.920;2023-01-28T02:48:11;96746.31;;;4.42;66.43
60874;BME280;46715;40.642;-7.920;2023-01-28T02:50:13;96742.03;;;4.36;66.14
60874;BME280;46715;40.642;-7.920;2023-01-28T02:56:28;96744.59;;;4.55;66.18
60874;BME280;46715;40.642;-7.920;2023-01-28T02:58:43;96751.91;;;4.76;65.35
60874;BME280;46715;40.642;-7.920;2023-01-28T03:01:01;96756.56;;;4.86;64.98
60874;BME280;46715;40.642;-7.920;2023-01-28T03:06:00;96751.53;;;4.91;64.56
60874;BME280;46715;40.642;-7.920;2023-01-28T03:08:07;96756.66;;;5.10;64.03
60874;BME280;46715;40.642;-7.920;2023-01-28T03:10:27;96761.53;;;5.18;63.97
60874;BME280;46715;40.642;-7.920;2023-01-28T03:12:28;96757.50;;;5.22;63.74
60874;BME280;46715;40.642;-7.920;2023-01-28T03:15:22;96756.88;;;5.08;63.99
60874;BME280;46715;40.642;-7.920;2023-01-28T03:17:37;96764.88;;;4.88;65.03
60874;BME280;46715;40.642;-7.920;2023-01-28T03:20:00;96773.91;;;4.98;65.05
60874;BME280;46715;40.642;-7.920;2023-01-28T03:22:21;96767.16;;;4.97;65.03
60874;BME280;46715;40.642;-7.920;2023-01-28T03:24:43;96772.06;;;4.86;65.17
60874;BME280;46715;40.642;-7.920;2023-01-28T03:27:06;96777.75;;;4.76;65.59
60874;BME280;46715;40.642;-7.920;2023-01-28T03:29:33;96780.13;;;4.59;66.17
60874;BME280;46715;40.642;-7.920;2023-01-28T03:31:55;96781.25;;;4.45;66.92
60874;BME280;46715;40.642;-7.920;2023-01-28T03:34:15;96784.44;;;4.47;66.95
60874;BME280;46715;40.642;-7.920;2023-01-28T03:36:35;96790.50;;;4.34;67.34
60874;BME280;46715;40.642;-7.920;2023-01-28T03:39:27;96790.47;;;4.16;67.74
60874;BME280;46715;40.642;-7.920;2023-01-28T03:41:29;96796.84;;;4.13;68.15
60874;BME280;46715;40.642;-7.920;2023-01-28T03:43:32;96794.69;;;4.10;68.41
60874;BME280;46715;40.642;-7.920;2023-01-28T03:45:33;96788.41;;;3.99;68.74
60874;BME280;46715;40.642;-7.920;2023-01-28T03:47:36;96784.34;;;3.91;68.72
60874;BME280;46715;40.642;-7.920;2023-01-28T03:49:43;96778.59;;;3.89;68.83
60874;BME280;46715;40.642;-7.920;2023-01-28T03:51:52;96788.13;;;3.89;69.40
60874;BME280;46715;40.642;-7.920;2023-01-28T03:53:53;96782.88;;;3.70;69.89
60874;BME280;46715;40.642;-7.920;2023-01-28T03:55:54;96782.19;;;3.82;69.58
60874;BME280;46715;40.642;-7.920;2023-01-28T03:57:58;96785.94;;;3.86;69.52
60874;BME280;46715;40.642;-7.920;2023-01-28T03:59:59;96785.22;;;3.79;69.57
60874;BME280;46715;40.642;-7.920;2023-01-28T04:02:02;96783.06;;;3.75;69.61
60874;BME280;46715;40.642;-7.920;2023-01-28T04:04:03;96788.28;;;3.62;70.34
60874;BME280;46715;40.642;-7.920;2023-01-28T04:06:04;96784.31;;;3.66;70.40
60874;BME280;46715;40.642;-7.920;2023-01-28T04:08:21;96780.72;;;3.67;70.84
60874;BME280;46715;40.642;-7.920;2023-01-28T04:10:44;96788.41;;;3.74;70.36
60874;BME280;46715;40.642;-7.920;2023-01-28T04:13:01;96787.03;;;3.71;69.99
60874;BME280;46715;40.642;-7.920;2023-01-28T04:15:03;96786.94;;;3.60;70.95
60874;BME280;46715;40.642;-7.920;2023-01-28T04:17:14;96790.16;;;3.48;71.47
60874;BME280;46715;40.642;-7.920;2023-01-28T04:19:16;96780.06;;;3.47;71.63
60874;BME280;46715;40.642;-7.920;2023-01-28T04:21:18;96782.41;;;3.55;71.19
60874;BME280;46715;40.642;-7.920;2023-01-28T04:23:20;96781.09;;;3.46;71.51
60874;BME280;46715;40.642;-7.920;2023-01-28T04:25:20;96791.22;;;3.40;71.99
60874;BME280;46715;40.642;-7.920;2023-01-28T04:27:21;96780.34;;;3.32;71.65
60874;BME280;46715;40.642;-7.920;2023-01-28T04:29:23;96780.16;;;3.33;72.39
60874;BME280;46715;40.642;-7.920;2023-01-28T04:31:25;96779.56;;;3.31;72.37
60874;BME280;46715;40.642;-7.920;2023-01-28T04:33:52;96783.53;;;3.34;72.52
60874;BME280;46715;40.642;-7.920;2023-01-28T04:35:58;96779.78;;;3.30;72.38
60874;BME280;46715;40.642;-7.920;2023-01-28T04:38:34;96787.25;;;2.99;73.35
60874;BME280;46715;40.642;-7.920;2023-01-28T04:40:53;96792.47;;;2.86;74.82
60874;BME280;46715;40.642;-7.920;2023-01-28T04:43:06;96784.00;;;2.72;74.86
60874;BME280;46715;40.642;-7.920;2023-01-28T04:45:25;96777.09;;;2.59;75.68
60874;BME280;46715;40.642;-7.920;2023-01-28T04:47:36;96778.16;;;2.38;76.93
60874;BME280;46715;40.642;-7.920;2023-01-28T04:50:13;96777.78;;;2.28;77.52
60874;BME280;46715;40.642;-7.920;2023-01-28T04:52:34;96779.38;;;2.15;78.62
60874;BME280;46715;40.642;-7.920;2023-01-28T04:54:52;96770.50;;;2.11;78.63
60874;BME280;46715;40.642;-7.920;2023-01-28T04:56:53;96769.28;;;2.20;78.36
60874;BME280;46715;40.642;-7.920;2023-01-28T04:58:54;96771.81;;;2.34;78.05
60874;BME280;46715;40.642;-7.920;2023-01-28T05:00:56;96770.44;;;2.45;77.03
60874;BME280;46715;40.642;-7.920;2023-01-28T05:02:57;96772.00;;;2.46;77.54
60874;BME280;46715;40.642;-7.920;2023-01-28T05:04:58;96775.78;;;2.43;77.98
60874;BME280;46715;40.642;-7.920;2023-01-28T05:07:19;96779.72;;;2.46;78.11
60874;BME280;46715;40.642;-7.920;2023-01-28T05:09:20;96781.69;;;2.44;78.37
60874;BME280;46715;40.642;-7.920;2023-01-28T05:11:21;96783.66;;;2.55;78.12
60874;BME280;46715;40.642;-7.920;2023-01-28T05:13:27;96776.75;;;2.49;77.68
60874;BME280;46715;40.642;-7.920;2023-01-28T05:15:28;96781.06;;;2.55;78.00
60874;BME280;46715;40.642;-7.920;2023-01-28T05:17:30;96780.28;;;2.54;77.92
60874;BME280;46715;40.642;-7.920;2023-01-28T05:19:31;96772.78;;;2.53;78.18
60874;BME280;46715;40.642;-7.920;2023-01-28T05:21:32;96777.53;;;2.56;78.03
60874;BME280;46715;40.642;-7.920;2023-01-28T05:23:36;96770.97;;;2.60;78.11
60874;BME280;46715;40.642;-7.920;2023-01-28T05:25:37;96772.75;;;2.60;77.68
60874;BME280;46715;40.642;-7.920;2023-01-28T05:27:38;96769.38;;;2.59;77.94
60874;BME280;46715;40.642;-7.920;2023-01-28T05:29:38;96767.38;;;2.68;77.74
60874;BME280;46715;40.642;-7.920;2023-01-28T05:31:39;96763.38;;;2.72;76.92
60874;BME280;46715;40.642;-7.920;2023-01-28T05:33:40;96770.88;;;2.87;76.48
60874;BME280;46715;40.642;-7.920;2023-01-28T05:35:44;96773.84;;;2.84;76.16
60874;BME280;46715;40.642;-7.920;2023-01-28T05:37:44;96778.78;;;2.92;75.88
60874;BME280;46715;40.642;-7.920;2023-01-28T05:39:46;96774.81;;;2.96;76.05
60874;BME280;46715;40.642;-7.920;2023-01-28T05:41:47;96777.41;;;2.89;76.84
60874;BME280;46715;40.642;-7.920;2023-01-28T05:43:47;96768.28;;;2.94;75.74
60874;BME280;46715;40.642;-7.920;2023-01-28T05:45:54;96769.25;;;2.93;76.24
60874;BME280;46715;40.642;-7.920;2023-01-28T05:48:00;96758.50;;;3.02;75.35
60874;BME280;46715;40.642;-7.920;2023-01-28T05:50:36;96757.53;;;2.97;75.76
60874;BME280;46715;40.642;-7.920;2023-01-28T05:52:45;96757.94;;;3.00;75.36
60874;BME280;46715;40.642;-7.920;2023-01-28T05:54:54;96759.31;;;3.03;75.84
60874;BME280;46715;40.642;-7.920;2023-01-28T05:56:55;96764.44;;;3.10;75.32
60874;BME280;46715;40.642;-7.920;2023-01-28T05:58:55;96769.19;;;3.13;74.87
60874;BME280;46715;40.642;-7.920;2023-01-28T06:00:57;96769.38;;;3.11;75.19
60874;BME280;46715;40.642;-7.920;2023-01-28T06:03:03;96774.44;;;3.24;74.87
60874;BME280;46715;40.642;-7.920;2023-01-28T06:05:05;96775.41;;;3.30;74.01
60874;BME280;46715;40.642;-7.920;2023-01-28T06:07:05;96773.88;;;3.22;74.29
60874;BME280;46715;40.642;-7.920;2023-01-28T06:09:06;96773.38;;;3.07;74.59
60874;BME280;46715;40.642;-7.920;2023-01-28T06:11:08;96764.25;;;3.04;75.05
60874;BME280;46715;40.642;-7.920;2023-01-28T06:13:09;96776.97;;;2.99;75.03
60874;BME280;46715;40.642;-7.920;2023-01-28T06:15:09;96777.34;;;3.03;74.97
60874;BME280;46715;40.642;-7.920;2023-01-28T06:17:31;96777.78;;;2.93;75.73
60874;BME280;46715;40.642;-7.920;2023-01-28T06:19:40;96786.69;;;2.97;75.83
60874;BME280;46715;40.642;-7.920;2023-01-28T06:21:42;96785.53;;;2.93;76.23
60874;BME280;46715;40.642;-7.920;2023-01-28T06:23:42;96790.47;;;2.95;75.26
60874;BME280;46715;40.642;-7.920;2023-01-28T06:25:43;96788.66;;;2.95;75.93
60874;BME280;46715;40.642;-7.920;2023-01-28T06:27:46;96779.34;;;2.94;75.53
60874;BME280;46715;40.642;-7.920;2023-01-28T06:29:47;96791.69;;;2.85;75.66
60874;BME280;46715;40.642;-7.920;2023-01-28T06:31:47;96786.34;;;2.80;75.75
60874;BME280;46715;40.642;-7.920;2023-01-28T06:33:48;96790.16;;;2.71;76.54
60874;BME280;46715;40.642;-7.920;2023-01-28T06:35:49;96789.56;;;2.62;77.28
60874;BME280;46715;40.642;-7.920;2023-01-28T06:37:49;96792.13;;;2.62;76.86
60874;BME280;46715;40.642;-7.920;2023-01-28T06:39:51;96792.34;;;2.54;77.21
60874;BME280;46715;40.642;-7.920;2023-01-28T06:41:52;96790.41;;;2.49;77.22
60874;BME280;46715;40.642;-7.920;2023-01-28T06:43:52;96797.50;;;2.54;77.79
60874;BME280;46715;40.642;-7.920;2023-01-28T06:45:54;96797.50;;;2.54;77.48
60874;BME280;46715;40.642;-7.920;2023-01-28T06:47:54;96801.88;;;2.53;77.59
60874;BME280;46715;40.642;-7.920;2023-01-28T06:49:55;96801.25;;;2.65;77.33
60874;BME280;46715;40.642;-7.920;2023-01-28T06:51:56;96799.19;;;2.87;75.95
60874;BME280;46715;40.642;-7.920;2023-01-28T06:53:56;96802.75;;;2.93;75.21
60874;BME280;46715;40.642;-7.920;2023-01-28T06:55:57;96805.31;;;2.93;74.89
60874;BME280;46715;40.642;-7.920;2023-01-28T06:57:58;96805.91;;;3.01;74.61
60874;BME280;46715;40.642;-7.920;2023-01-28T06:59:59;96807.63;;;3.07;74.01
60874;BME280;46715;40.642;-7.920;2023-01-28T07:01:59;96805.06;;;3.07;73.96
60874;BME280;46715;40.642;-7.920;2023-01-28T07:04:00;96806.22;;;3.18;73.06
60874;BME280;46715;40.642;-7.920;2023-01-28T07:06:00;96813.69;;;3.33;72.83
60874;BME280;46715;40.642;-7.920;2023-01-28T07:08:01;96807.50;;;3.34;72.13
60874;BME280;46715;40.642;-7.920;2023-01-28T07:10:02;96814.25;;;3.35;72.45
60874;BME280;46715;40.642;-7.920;2023-01-28T07:12:03;96812.63;;;3.41;72.40
60874;BME280;46715;40.642;-7.920;2023-01-28T07:14:04;96813.63;;;3.40;71.97
60874;BME280;46715;40.642;-7.920;2023-01-28T07:16:05;96805.72;;;3.35;72.56
60874;BME280;46715;40.642;-7.920;2023-01-28T07:18:06;96803.69;;;3.44;72.00
60874;BME280;46715;40.642;-7.920;2023-01-28T07:20:07;96799.28;;;3.51;71.22
60874;BME280;46715;40.642;-7.920;2023-01-28T07:22:09;96800.53;;;3.41;71.66
60874;BME280;46715;40.642;-7.920;2023-01-28T07:24:10;96803.47;;;3.45;71.09
60874;BME280;46715;40.642;-7.920;2023-01-28T07:26:11;96806.81;;;3.52;71.13
60874;BME280;46715;40.642;-7.920;2023-01-28T07:28:11;96806.56;;;3.61;70.19
60874;BME280;46715;40.642;-7.920;2023-01-28T07:30:12;96803.06;;;3.48;70.92
60874;BME280;46715;40.642;-7.920;2023-01-28T07:32:13;96805.50;;;3.43;71.07
60874;BME280;46715;40.642;-7.920;2023-01-28T07:34:13;96811.19;;;3.52;70.85
60874;BME280;46715;40.642;-7.920;2023-01-28T07:36:14;96804.28;;;3.46;71.35
60874;BME280;46715;40.642;-7.920;2023-01-28T07:38:15;96804.97;;;3.28;71.22
60874;BME280;46715;40.642;-7.920;2023-01-28T07:40:15;96812.84;;;3.39;71.38
60874;BME280;46715;40.642;-7.920;2023-01-28T07:42:16;96808.91;;;3.30;71.88
60874;BME280;46715;40.642;-7.920;2023-01-28T07:44:20;96811.53;;;3.23;71.74
60874;BME280;46715;40.642;-7.920;2023-01-28T07:46:21;96820.44;;;3.28;72.14
60874;BME280;46715;40.642;-7.920;2023-01-28T07:48:21;96830.19;;;3.19;72.41
60874;BME280;46715;40.642;-7.920;2023-01-28T07:50:22;96831.38;;;3.16;71.78
60874;BME280;46715;40.642;-7.920;2023-01-28T07:52:23;96827.06;;;3.03;72.15
60874;BME280;46715;40.642;-7.920;2023-01-28T07:54:23;96825.91;;;2.99;72.32
60874;BME280;46715;40.642;-7.920;2023-01-28T07:56:24;96827.31;;;2.95;72.93
60874;BME280;46715;40.642;-7.920;2023-01-28T07:58:28;96831.09;;;2.86;73.39
60874;BME280;46715;40.642;-7.920;2023-01-28T08:00:30;96821.97;;;2.90;73.27
60874;BME280;46715;40.642;-7.920;2023-01-28T08:02:31;96826.19;;;3.23;72.54
60874;BME280;46715;40.642;-7.920;2023-01-28T08:04:31;96826.16;;;3.36;72.22
60874;BME280;46715;40.642;-7.920;2023-01-28T08:06:32;96835.00;;;3.47;71.60
60874;BME280;46715;40.642;-7.920;2023-01-28T08:08:37;96838.91;;;3.56;70.71
60874;BME280;46715;40.642;-7.920;2023-01-28T08:10:37;96832.69;;;3.71;70.51
60874;BME280;46715;40.642;-7.920;2023-01-28T08:12:38;96832.47;;;4.04;69.83
60874;BME280;46715;40.642;-7.920;2023-01-28T08:14:39;96825.63;;;4.35;68.61
60874;BME280;46715;40.642;-7.920;2023-01-28T08:16:40;96828.22;;;4.54;67.56
60874;BME280;46715;40.642;-7.920;2023-01-28T08:18:40;96824.75;;;4.85;66.86
60874;BME280;46715;40.642;-7.920;2023-01-28T08:20:41;96826.13;;;5.37;65.71
60874;BME280;46715;40.642;-7.920;2023-01-28T08:22:44;96817.88;;;6.01;64.19
60874;BME280;46715;40.642;-7.920;2023-01-28T08:24:44;96824.88;;;6.59;61.72
60874;BME280;46715;40.642;-7.920;2023-01-28T08:26:46;96822.53;;;7.39;60.36
60874;BME280;46715;40.642;-7.920;2023-01-28T08:28:47;96818.97;;;8.42;57.96
60874;BME280;46715;40.642;-7.920;2023-01-28T08:30:47;96815.22;;;8.50;53.14
60874;BME280;46715;40.642;-7.920;2023-01-28T08:32:48;96807.81;;;9.52;51.62
60874;BME280;46715;40.642;-7.920;2023-01-28T08:34:49;96817.47;;;9.84;50.46
60874;BME280;46715;40.642;-7.920;2023-01-28T08:36:50;96817.50;;;10.65;49.67
60874;BME280;46715;40.642;-7.920;2023-01-28T08:38:51;96808.59;;;11.29;47.88
60874;BME280;46715;40.642;-7.920;2023-01-28T08:40:54;96812.34;;;11.90;46.81
60874;BME280;46715;40.642;-7.920;2023-01-28T08:42:55;96817.81;;;11.52;44.86
60874;BME280;46715;40.642;-7.920;2023-01-28T08:44:56;96823.06;;;12.30;45.05
60874;BME280;46715;40.642;-7.920;2023-01-28T08:46:56;96822.72;;;12.67;43.57
60874;BME280;46715;40.642;-7.920;2023-01-28T08:48:57;96814.91;;;12.57;42.52
60874;BME280;46715;40.642;-7.920;2023-01-28T08:50:58;96813.19;;;13.02;42.24
60874;BME280;46715;40.642;-7.920;2023-01-28T08:53:00;96819.63;;;13.36;41.77
60874;BME280;46715;40.642;-7.920;2023-01-28T08:55:01;96822.03;;;13.17;41.62
60874;BME280;46715;40.642;-7.920;2023-01-28T08:57:01;96822.78;;;13.27;41.47
60874;BME280;46715;40.642;-7.920;2023-01-28T08:59:02;96834.78;;;13.34;41.39
60874;BME280;46715;40.642;-7.920;2023-01-28T09:01:03;96827.56;;;14.00;40.90
60874;BME280;46715;40.642;-7.920;2023-01-28T09:03:05;96821.91;;;14.46;38.38
60874;BME280;46715;40.642;-7.920;2023-01-28T09:05:06;96818.47;;;14.51;38.00
60874;BME280;46715;40.642;-7.920;2023-01-28T09:07:07;96830.50;;;14.27;36.70
60874;BME280;46715;40.642;-7.920;2023-01-28T09:09:15;96829.41;;;13.09;37.74
60874;BME280;46715;40.642;-7.920;2023-01-28T09:11:16;96845.94;;;12.94;37.99
60874;BME280;46715;40.642;-7.920;2023-01-28T09:13:16;96839.41;;;12.92;38.28
60874;BME280;46715;40.642;-7.920;2023-01-28T09:15:17;96841.75;;;12.93;38.06
60874;BME280;46715;40.642;-7.920;2023-01-28T09:17:19;96853.50;;;13.06;38.06
60874;BME280;46715;40.642;-7.920;2023-01-28T09:19:19;96844.41;;;12.83;37.69
60874;BME280;46715;40.642;-7.920;2023-01-28T09:21:20;96837.72;;;12.10;39.12
60874;BME280;46715;40.642;-7.920;2023-01-28T09:23:21;96847.88;;;11.91;40.33
60874;BME280;46715;40.642;-7.920;2023-01-28T09:25:22;96844.50;;;12.47;39.63
60874;BME280;46715;40.642;-7.920;2023-01-28T09:27:22;96843.97;;;12.35;39.50
60874;BME280;46715;40.642;-7.920;2023-01-28T09:29:23;96850.50;;;12.53;38.55
60874;BME280;46715;40.642;-7.920;2023-01-28T09:31:24;96851.81;;;11.88;39.60
60874;BME280;46715;40.642;-7.920;2023-01-28T09:33:25;96866.06;;;11.39;40.80
60874;BME280;46715;40.642;-7.920;2023-01-28T09:35:25;96878.94;;;10.18;43.55
60874;BME280;46715;40.642;-7.920;2023-01-28T09:37:26;96886.03;;;9.18;45.64
60874;BME280;46715;40.642;-7.920;2023-01-28T09:39:27;96894.31;;;9.15;46.58
60874;BME280;46715;40.642;-7.920;2023-01-28T09:41:32;96887.25;;;8.55;48.25
60874;BME280;46715;40.642;-7.920;2023-01-28T09:45:41;96900.19;;;7.87;50.15
60874;BME280;46715;40.642;-7.920;2023-01-28T09:47:53;96894.44;;;7.56;49.99
60874;BME280;46715;40.642;-7.920;2023-01-28T09:49:56;96907.38;;;7.27;52.27
60874;BME280;46715;40.642;-7.920;2023-01-28T09:51:57;96899.13;;;7.42;51.77
60874;BME280;46715;40.642;-7.920;2023-01-28T09:53:59;96894.84;;;7.64;51.15
60874;BME280;46715;40.642;-7.920;2023-01-28T09:56:12;96886.28;;;7.93;51.27
60874;BME280;46715;40.642;-7.920;2023-01-28T09:58:14;96892.59;;;8.14;52.58
60874;BME280;46715;40.642;-7.920;2023-01-28T10:00:19;96893.59;;;7.96;51.72
60874;BME280;46715;40.642;-7.920;2023-01-28T10:04:41;96887.56;;;8.07;51.55
60874;BME280;46715;40.642;-7.920;2023-01-28T10:06:53;96899.47;;;8.37;53.46
60874;BME280;46715;40.642;-7.920;2023-01-28T10:11:19;96892.34;;;8.32;53.74
60874;BME280;46715;40.642;-7.920;2023-01-28T10:15:46;96899.03;;;8.28;54.24
60874;BME280;46715;40.642;-7.920;2023-01-28T10:17:50;96891.72;;;8.08;55.38
60874;BME280;46715;40.642;-7.920;2023-01-28T10:19:56;96893.84;;;8.11;55.48
60874;BME280;46715;40.642;-7.920;2023-01-28T10:22:02;96899.44;;;8.03;55.59
60874;BME280;46715;40.642;-7.920;2023-01-28T10:26:08;96897.88;;;8.19;55.02
60874;BME280;46715;40.642;-7.920;2023-01-28T10:28:33;96900.16;;;8.32;55.02
60874;BME280;46715;40.642;-7.920;2023-01-28T10:30:34;96891.47;;;8.44;54.15
60874;BME280;46715;40.642;-7.920;2023-01-28T10:32:40;96886.06;;;8.45;53.98
60874;BME280;46715;40.642;-7.920;2023-01-28T10:34:43;96893.56;;;8.42;55.44
60874;BME280;46715;40.642;-7.920;2023-01-28T10:36:44;96893.78;;;8.40;55.14
60874;BME280;46715;40.642;-7.920;2023-01-28T10:38:45;96898.63;;;8.48;54.22
60874;BME280;46715;40.642;-7.920;2023-01-28T10:40:46;96902.31;;;8.52;52.22
60874;BME280;46715;40.642;-7.920;2023-01-28T10:42:49;96896.31;;;8.52;54.42
60874;BME280;46715;40.642;-7.920;2023-01-28T10:44:50;96892.63;;;8.65;53.54
60874;BME280;46715;40.642;-7.920;2023-01-28T10:46:51;96891.34;;;8.67;54.09
60874;BME280;46715;40.642;-7.920;2023-01-28T10:51:06;96899.84;;;8.80;54.54
60874;BME280;46715;40.642;-7.920;2023-01-28T10:53:06;96897.03;;;9.03;52.39
60874;BME280;46715;40.642;-7.920;2023-01-28T10:55:13;96891.16;;;9.13;50.74
60874;BME280;46715;40.642;-7.920;2023-01-28T10:57:14;96887.84;;;9.18;50.23
60874;BME280;46715;40.642;-7.920;2023-01-28T11:01:43;96898.78;;;9.42;50.01
60874;BME280;46715;40.642;-7.920;2023-01-28T11:03:52;96893.41;;;9.49;48.74
60874;BME280;46715;40.642;-7.920;2023-01-28T11:05:53;96897.69;;;9.38;49.13
60874;BME280;46715;40.642;-7.920;2023-01-28T11:08:04;96886.38;;;9.49;49.22
60874;BME280;46715;40.642;-7.920;2023-01-28T11:10:38;96881.41;;;9.48;48.05
60874;BME280;46715;40.642;-7.920;2023-01-28T11:12:33;96894.06;;;9.39;48.46
60874;BME280;46715;40.642;-7.920;2023-01-28T11:14:34;96891.41;;;9.12;49.59
60874;BME280;46715;40.642;-7.920;2023-01-28T11:16:35;96893.47;;;9.32;48.84
60874;BME280;46715;40.642;-7.920;2023-01-28T11:18:40;96894.25;;;9.32;48.79
60874;BME280;46715;40.642;-7.920;2023-01-28T11:21:00;96894.00;;;9.56;48.79
60874;BME280;46715;40.642;-7.920;2023-01-28T11:23:00;96883.41;;;9.41;48.58
60874;BME280;46715;40.642;-7.920;2023-01-28T11:25:02;96887.19;;;9.28;48.86
60874;BME280;46715;40.642;-7.920;2023-01-28T11:27:09;96883.53;;;9.51;47.68
60874;BME280;46715;40.642;-7.920;2023-01-28T11:29:31;96873.88;;;9.73;47.19
60874;BME280;46715;40.642;-7.920;2023-01-28T11:31:41;96870.63;;;9.88;47.53